Thurso, Canada
Current Conditions -  °F | °C
As of 9:00 PM on Saturday 25 Oct 2014 (Local Time) from CYND Reporting Station
Rain Showers Rain Showers  
Wind Chill:   Ceiling: 3000
Heat Index:   Visibility: 12mi
Dew Point:   Wind: 8mph
Humidity: 87%   Direction: 310°NW
Pressure: 29.47"   Gusts: 18mph
Location:  45.58°N, 75.23°W
Report Text: CYND 260100Z 31007G16KT 270V340 12SM -SHRA OVC030 09/07 A2947 RMK SC8 LAST OBS/NEXT 261100 UTC SLP981
Loading
Personal Weather Stations






























Interactive Weather Map
Tropical Storm Tracking
New forecast layout! Learn more

10-Day Weather Forecast

Advertisements
Track Severe Weather on mobile